Time;durP1;ratioP1;P1;durP2;ratioP2;P2;SDS_P1;SDS_P2;PMS_P1;PMS_P2;Temp;Humidity;BMP_temperature;BMP_pressure;BME280_temperature;BME280_humidity;BME280_pressure;Samples;Min_cycle;Max_cycle;Signal;HPM_P1;HPM_P2
2023/01/14 00:01:43;;;;;;;51.63;26.40;;;;;;;5.29;75.45;95520.78;5010736;28;20029;-77
2023/01/14 00:04:08;;;;;;;54.05;25.88;;;;;;;5.14;75.64;95499.41;4995307;28;20113;-77
2023/01/14 00:06:37;;;;;;;54.22;27.50;;;;;;;5.28;76.00;95521.00;5010846;28;20036;-77
2023/01/14 00:09:09;;;;;;;51.78;26.30;;;;;;;4.93;76.10;95457.97;5011426;28;20117;-76
2023/01/14 00:11:48;;;;;;;58.28;28.75;;;;;;;5.02;75.86;95517.06;5004241;28;20505;-76
2023/01/14 00:14:21;;;;;;;58.72;28.90;;;;;;;4.51;76.74;95457.31;4989990;28;20050;-77
2023/01/14 00:16:46;;;;;;;59.97;28.45;;;;;;;4.76;76.27;95476.25;4992336;28;20047;-76
2023/01/14 00:19:12;;;;;;;63.42;30.35;;;;;;;4.86;76.54;95500.16;4992367;28;20026;-76
2023/01/14 00:21:37;;;;;;;59.53;29.38;;;;;;;4.95;76.69;95503.22;4973535;28;20034;-76
2023/01/14 00:24:04;;;;;;;57.60;28.27;;;;;;;4.97;75.75;95520.34;4992738;28;20126;-76
2023/01/14 00:26:30;;;;;;;53.28;28.58;;;;;;;4.76;75.60;95460.50;4973542;28;20113;-77
2023/01/14 00:28:56;;;;;;;56.42;28.95;;;;;;;5.15;75.51;95505.47;4972393;28;20023;-78
2023/01/14 00:31:24;;;;;;;63.13;29.90;;;;;;;5.04;75.52;95486.84;4955402;28;20164;-77
2023/01/14 00:33:51;;;;;;;59.67;28.95;;;;;;;5.14;75.30;95502.03;4991847;28;20033;-77
2023/01/14 00:36:19;;;;;;;54.70;28.45;;;;;;;4.88;75.41;95455.25;4992369;28;20038;-76
2023/01/14 00:38:44;;;;;;;58.70;28.63;;;;;;;4.93;75.00;95457.97;4991581;28;20159;-77
2023/01/14 00:41:10;;;;;;;56.15;28.65;;;;;;;5.18;75.30;95500.56;4991247;28;20098;-77
2023/01/14 00:43:41;;;;;;;59.80;28.70;;;;;;;4.79;75.11;95433.78;4991083;28;20556;-77
2023/01/14 00:46:10;;;;;;;54.17;27.95;;;;;;;5.22;75.57;95490.38;4992105;28;20072;-77
2023/01/14 00:48:36;;;;;;;58.63;28.20;;;;;;;5.14;74.95;95488.91;4962193;28;20081;-77
2023/01/14 00:51:02;;;;;;;60.95;28.65;;;;;;;5.26;74.47;95496.78;4984855;28;20744;-77
2023/01/14 00:53:28;;;;;;;54.78;28.70;;;;;;;5.12;74.98;95469.94;4960304;28;20035;-77
2023/01/14 00:55:54;;;;;;;55.45;30.08;;;;;;;5.28;74.82;95492.06;4969895;28;20521;-77
2023/01/14 00:58:20;;;;;;;52.35;28.50;;;;;;;5.18;75.53;95495.31;4976010;28;20038;-77
2023/01/14 01:00:45;;;;;;;56.03;28.50;;;;;;;5.20;75.27;95501.13;4973597;28;20033;-77
2023/01/14 01:03:12;;;;;;;58.47;31.48;;;;;;;5.05;75.01;95464.00;5001586;28;20041;-77
2023/01/14 01:05:38;;;;;;;61.45;30.85;;;;;;;5.12;75.00;95461.22;4991188;28;20053;-77
2023/01/14 01:08:05;;;;;;;73.25;34.13;;;;;;;5.01;75.46;95444.47;4988163;28;20038;-77
2023/01/14 01:10:34;;;;;;;68.68;31.42;;;;;;;5.34;75.85;95493.78;4975245;28;20030;-77
2023/01/14 01:12:59;;;;;;;66.50;32.03;;;;;;;5.35;75.35;95496.16;4985958;28;20022;-77
2023/01/14 01:15:25;;;;;;;68.22;32.47;;;;;;;5.34;75.45;95497.19;4977859;28;20057;-77
2023/01/14 01:17:50;;;;;;;64.13;30.63;;;;;;;5.27;76.09;95499.16;4966617;28;20030;-77
2023/01/14 01:20:16;;;;;;;75.68;31.67;;;;;;;4.68;75.92;95429.31;4979513;28;20030;-77
2023/01/14 01:22:42;;;;;;;65.65;32.25;;;;;;;5.18;76.16;95497.13;4959784;28;20077;-76
2023/01/14 01:25:08;;;;;;;66.65;31.63;;;;;;;5.23;75.91;95498.03;4981398;28;20062;-77
2023/01/14 01:27:33;;;;;;;69.80;32.92;;;;;;;4.81;75.71;95428.25;4969421;28;20125;-77
2023/01/14 01:29:59;;;;;;;65.05;32.33;;;;;;;4.79;75.96;95417.22;4988122;28;20031;-76
2023/01/14 01:32:25;;;;;;;67.38;31.00;;;;;;;5.10;76.16;95447.53;4972762;28;20034;-77
2023/01/14 01:34:50;;;;;;;63.25;32.63;;;;;;;5.04;76.14;95446.63;4972802;28;20577;-77
2023/01/14 01:37:16;;;;;;;61.28;31.02;;;;;;;5.31;75.91;95478.47;4990343;28;20058;-77
2023/01/14 01:39:41;;;;;;;74.55;33.83;;;;;;;5.06;76.02;95436.69;4972811;28;20032;-77
2023/01/14 01:42:13;;;;;;;72.78;34.20;;;;;;;5.35;75.68;95480.38;4978668;28;20045;-77
2023/01/14 01:44:41;;;;;;;65.43;32.50;;;;;;;5.34;75.63;95478.78;4970981;28;20480;-77
2023/01/14 01:47:10;;;;;;;67.25;32.97;;;;;;;5.35;76.11;95469.88;4983436;28;20037;-77
2023/01/14 01:49:38;;;;;;;67.38;31.48;;;;;;;4.92;75.75;95409.06;4990146;28;20400;-77
2023/01/14 01:52:12;;;;;;;70.40;30.58;;;;;;;5.33;75.76;95473.78;4990511;28;20022;-76
2023/01/14 01:54:44;;;;;;;68.63;32.83;;;;;;;5.18;75.87;95453.25;4965827;28;20050;-76
2023/01/14 01:57:13;;;;;;;61.92;29.80;;;;;;;5.04;75.56;95417.72;4990484;28;20448;-78
2023/01/14 01:59:44;;;;;;;61.30;29.35;;;;;;;4.96;76.05;95402.28;4968539;28;20488;-77
2023/01/14 02:02:11;;;;;;;59.78;30.17;;;;;;;5.34;75.95;95459.59;4972948;28;20026;-77
2023/01/14 02:04:36;;;;;;;64.15;31.15;;;;;;;5.13;75.68;95424.19;4971677;28;20046;-77
2023/01/14 02:07:02;;;;;;;56.78;28.80;;;;;;;5.17;75.44;95435.88;4972475;28;20063;-77
2023/01/14 02:09:28;;;;;;;59.55;30.63;;;;;;;5.35;75.58;95454.09;4972160;28;20033;-76
2023/01/14 02:11:53;;;;;;;55.55;28.73;;;;;;;5.33;75.37;95461.44;4985691;28;20108;-77
2023/01/14 02:15:02;;;;;;;54.78;27.48;;;;;;;5.04;75.06;95444.00;4958731;28;20421;-76
2023/01/14 02:17:31;;;;;;;60.17;26.75;;;;;;;5.25;75.08;95469.69;4962314;28;20065;-77
2023/01/14 02:20:11;;;;;;;59.30;27.55;;;;;;;5.31;75.04;95460.84;4979907;28;20038;-77
2023/01/14 02:22:52;;;;;;;56.63;28.33;;;;;;;5.30;75.36;95467.16;4989559;28;20030;-77
2023/01/14 02:25:48;;;;;;;55.38;27.60;;;;;;;5.25;75.50;95464.44;4977023;28;20039;-77
2023/01/14 02:28:32;;;;;;;53.10;27.63;;;;;;;5.25;75.29;95463.63;4976747;28;20037;-75
2023/01/14 02:31:03;;;;;;;52.55;26.25;;;;;;;5.03;75.26;95464.22;4969275;28;20069;-76
2023/01/14 02:33:38;;;;;;;50.28;26.08;;;;;;;4.97;76.03;95459.91;4972210;28;20042;-76
2023/01/14 02:36:38;;;;;;;54.72;27.15;;;;;;;4.96;75.88;95463.56;4989228;28;20477;-76
2023/01/14 02:39:36;;;;;;;56.75;28.05;;;;;;;4.76;76.12;95465.75;4974814;28;20042;-76
2023/01/14 02:45:11;;;;;;;57.67;27.98;;;;;;;4.68;76.79;95442.47;4989492;28;20048;-76
2023/01/14 02:47:40;;;;;;;55.85;27.63;;;;;;;4.78;76.14;95442.69;4984421;28;20037;-76
2023/01/14 02:50:06;;;;;;;54.63;27.08;;;;;;;4.40;77.30;95456.28;4982275;28;20081;-76
2023/01/14 02:52:32;;;;;;;55.67;27.02;;;;;;;4.38;77.24;95436.53;4967676;28;20034;-76
2023/01/14 02:55:05;;;;;;;57.33;27.90;;;;;;;4.80;77.04;95455.59;4963821;28;20398;-73
2023/01/14 02:57:41;;;;;;;48.28;26.85;;;;;;;4.77;76.37;95442.91;4982444;28;20521;-73
2023/01/14 03:00:28;;;;;;;55.85;27.00;;;;;;;4.80;75.42;95463.47;4975702;28;20034;-73
2023/01/14 03:03:27;;;;;;;57.72;26.60;;;;;;;4.57;75.81;95430.16;4983209;28;20492;-73
2023/01/14 03:06:21;;;;;;;55.78;25.63;;;;;;;4.73;75.86;95468.81;4989064;28;20030;-74
2023/01/14 03:08:55;;;;;;;52.28;25.25;;;;;;;4.57;76.42;95462.47;4987708;28;20114;-73
2023/01/14 03:11:21;;;;;;;47.53;24.77;;;;;;;4.58;75.68;95443.03;4988766;28;20410;-73
2023/01/14 03:14:02;;;;;;;50.15;26.77;;;;;;;4.77;75.36;95469.19;4971275;28;20065;-74
2023/01/14 03:16:40;;;;;;;51.53;26.23;;;;;;;4.64;75.46;95472.84;4971595;28;20042;-73
2023/01/14 03:19:19;;;;;;;50.95;26.17;;;;;;;4.39;76.10;95473.06;4977530;28;20060;-73
2023/01/14 03:21:49;;;;;;;57.40;27.50;;;;;;;4.31;76.55;95431.41;4989767;28;20481;-73
2023/01/14 03:24:22;;;;;;;46.70;24.98;;;;;;;4.21;75.48;95383.91;4987871;28;20038;-74
2023/01/14 03:26:48;;;;;;;51.38;27.15;;;;;;;4.54;75.53;95435.84;4966174;28;20100;-73
2023/01/14 03:29:23;;;;;;;54.30;27.08;;;;;;;4.80;75.51;95466.09;4970009;28;20034;-73
2023/01/14 03:31:58;;;;;;;56.95;26.60;;;;;;;4.84;75.02;95461.97;4992029;28;20034;-73
2023/01/14 03:34:28;;;;;;;55.67;25.83;;;;;;;4.31;74.26;95365.75;4975591;28;20436;-73
2023/01/14 03:36:58;;;;;;;47.88;25.45;;;;;;;4.47;74.08;95377.38;4974556;28;20060;-73
2023/01/14 03:39:26;;;;;;;53.53;26.17;;;;;;;5.02;74.26;95457.41;4993011;28;20030;-74
2023/01/14 03:44:51;;;;;;;52.72;27.42;;;;;;;4.99;74.25;95449.97;4986002;28;20128;-73
2023/01/14 03:47:18;;;;;;;52.15;26.27;;;;;;;4.64;73.63;95400.09;4971995;28;20053;-73
2023/01/14 03:49:44;;;;;;;55.00;27.90;;;;;;;4.89;73.70;95460.25;4986343;28;20064;-73
2023/01/14 03:52:18;;;;;;;48.42;25.15;;;;;;;4.38;74.05;95387.44;4983795;28;20035;-73
2023/01/14 03:55:20;;;;;;;52.08;27.08;;;;;;;4.74;73.94;95457.28;4982944;28;20410;-73
2023/01/14 03:57:53;;;;;;;;;;;;;;;4.69;74.40;95446.69;4941371;28;20035;-74
2023/01/14 04:00:26;;;;;;;55.08;25.10;;;;;;;4.78;73.84;95450.56;4990016;28;19957;-73
2023/01/14 04:02:54;;;;;;;56.05;26.17;;;;;;;4.86;73.59;95447.59;4970302;28;20345;-73
2023/01/14 04:05:19;;;;;;;46.00;24.90;;;;;;;4.92;73.33;95451.13;4989338;28;20045;-73
2023/01/14 04:07:49;;;;;;;52.25;25.58;;;;;;;5.00;73.08;95453.38;4979303;28;20022;-73
2023/01/14 04:10:15;;;;;;;53.97;26.48;;;;;;;4.51;72.91;95365.38;4971022;28;20038;-73
2023/01/14 04:15:20;;;;;;;46.97;25.40;;;;;;;4.79;72.94;95406.69;4991322;28;20524;-73
2023/01/14 04:15:25;;;;;;;55.97;26.50;;;;;;;4.75;73.11;95389.78;4977305;28;20055;-73
2023/01/14 04:17:51;;;;;;;52.00;27.02;;;;;;;4.93;73.21;95436.94;4959702;28;20105;-73
2023/01/14 04:20:16;;;;;;;59.08;27.85;;;;;;;4.91;73.71;95439.00;4992411;28;20029;-73
2023/01/14 04:22:42;;;;;;;56.63;28.40;;;;;;;5.02;73.72;95430.31;4992127;28;20022;-74
2023/01/14 04:25:07;;;;;;;53.65;27.95;;;;;;;4.97;73.39;95422.28;4959864;28;20023;-75
2023/01/14 04:27:32;;;;;;;51.60;27.52;;;;;;;5.05;73.11;95438.50;4981870;28;20082;-73
2023/01/14 04:29:58;;;;;;;56.90;28.30;;;;;;;4.76;73.61;95404.53;4965089;28;20026;-73
2023/01/14 04:32:24;;;;;;;59.35;30.08;;;;;;;4.76;73.50;95396.63;4984710;28;20398;-72
2023/01/14 04:34:49;;;;;;;64.72;31.80;;;;;;;4.61;73.89;95373.47;4991886;28;20022;-74
2023/01/14 04:37:15;;;;;;;62.22;30.55;;;;;;;5.08;73.94;95442.50;4974265;28;20484;-75
2023/01/14 04:39:40;;;;;;;60.85;30.63;;;;;;;5.01;73.94;95437.38;4990807;28;20133;-74
2023/01/14 04:42:26;;;;;;;67.95;33.90;;;;;;;4.92;74.49;95416.94;4971579;28;20481;-74
2023/01/14 04:44:56;;;;;;;70.22;34.28;;;;;;;4.84;73.63;95402.34;4991744;28;20037;-75
2023/01/14 04:47:22;;;;;;;68.70;35.17;;;;;;;5.07;73.62;95430.41;4991593;28;20026;-75
2023/01/14 04:49:48;;;;;;;74.78;35.30;;;;;;;4.93;73.95;95411.47;4991171;28;20039;-74
2023/01/14 04:52:13;;;;;;;68.10;34.22;;;;;;;4.92;73.78;95423.00;4974253;28;20409;-75
2023/01/14 04:54:38;;;;;;;69.85;33.33;;;;;;;4.89;73.75;95418.19;4979173;28;20369;-74
2023/01/14 04:57:04;;;;;;;71.28;33.15;;;;;;;4.90;73.93;95417.16;4965149;28;20093;-74
2023/01/14 04:59:30;;;;;;;70.38;34.38;;;;;;;4.99;73.69;95436.81;4983019;28;20042;-75
2023/01/14 05:01:56;;;;;;;69.40;33.45;;;;;;;5.01;74.09;95441.84;4986802;28;20058;-75
2023/01/14 05:04:21;;;;;;;68.15;32.85;;;;;;;5.01;74.43;95441.84;4991135;28;20048;-74
2023/01/14 05:06:46;;;;;;;74.82;34.33;;;;;;;4.96;74.11;95442.53;4973325;28;20772;-74
2023/01/14 05:09:12;;;;;;;68.63;34.20;;;;;;;4.82;74.22;95427.25;4991192;28;20037;-74
2023/01/14 05:11:37;;;;;;;70.43;34.28;;;;;;;4.53;73.98;95371.22;4981847;28;20125;-74
2023/01/14 05:14:03;;;;;;;70.40;32.55;;;;;;;4.43;74.02;95357.84;4974830;28;20062;-74
2023/01/14 05:16:28;;;;;;;76.75;35.50;;;;;;;5.00;74.69;95440.25;4972197;28;20121;-74
2023/01/14 05:18:54;;;;;;;66.68;33.28;;;;;;;4.69;74.34;95395.97;4985167;28;20026;-75
2023/01/14 05:21:19;;;;;;;71.55;35.35;;;;;;;4.79;74.22;95410.13;4990907;28;20094;-75
2023/01/14 05:23:46;;;;;;;64.07;33.08;;;;;;;4.88;75.17;95432.38;4962695;28;20027;-74
2023/01/14 05:26:11;;;;;;;70.45;32.58;;;;;;;4.67;74.88;95396.19;4977878;28;20077;-75
2023/01/14 05:28:36;;;;;;;73.00;34.90;;;;;;;4.70;75.36;95401.00;4972659;28;20472;-74
2023/01/14 05:31:03;;;;;;;66.55;34.67;;;;;;;5.00;74.83;95456.81;4990354;28;20058;-74
2023/01/14 05:33:29;;;;;;;65.55;33.78;;;;;;;5.04;75.36;95449.25;4984661;28;20038;-74
2023/01/14 05:35:56;;;;;;;70.60;35.35;;;;;;;4.74;74.77;95402.13;4968310;28;20026;-75
2023/01/14 05:38:21;;;;;;;70.85;33.40;;;;;;;5.05;74.76;95458.75;4990540;28;20034;-74
2023/01/14 05:40:46;;;;;;;97.78;43.35;;;;;;;4.56;75.30;95386.53;4990276;28;20495;-75
2023/01/14 05:45:59;;;;;;;78.57;36.03;;;;;;;4.97;75.20;95449.38;4980129;28;20882;-74
2023/01/14 05:48:25;;;;;;;77.90;37.55;;;;;;;4.36;75.91;95375.56;4954848;28;20472;-74
2023/01/14 05:50:52;;;;;;;84.95;37.30;;;;;;;4.70;75.33;95414.13;4984563;28;20612;-73
2023/01/14 05:53:18;;;;;;;78.00;36.13;;;;;;;4.95;75.38;95451.47;4990526;28;20074;-73
2023/01/14 05:55:44;;;;;;;77.57;37.83;;;;;;;4.91;74.79;95445.06;4978861;28;20438;-73
2023/01/14 05:58:10;;;;;;;81.40;37.95;;;;;;;5.10;74.90;95469.38;4977677;28;20039;-73
2023/01/14 06:06:22;;;;;;;73.32;35.88;;;;;;;4.36;75.54;95407.06;4983014;28;20060;-74
2023/01/14 06:08:54;;;;;;;72.90;34.67;;;;;;;4.20;75.34;95382.28;4971747;28;20038;-74
2023/01/14 06:11:23;;;;;;;77.65;35.42;;;;;;;4.09;75.49;95369.97;4967743;28;20128;-74
2023/01/14 06:13:50;;;;;;;65.35;35.90;;;;;;;4.45;75.15;95417.00;4971540;28;20037;-74
2023/01/14 06:16:16;;;;;;;76.88;35.65;;;;;;;4.77;75.51;95461.31;4990388;28;20038;-74
2023/01/14 06:18:42;;;;;;;77.32;35.30;;;;;;;4.75;75.30;95465.97;4958484;28;20062;-74
2023/01/14 06:21:17;;;;;;;63.63;32.00;;;;;;;4.74;75.22;95461.75;4976364;28;20453;-74
2023/01/14 06:23:43;;;;;;;61.65;30.48;;;;;;;4.69;75.42;95467.69;4966687;28;20046;-73
2023/01/14 06:26:14;;;;;;;66.00;27.80;;;;;;;4.37;74.58;95404.22;4970993;28;20493;-73
2023/01/14 06:28:40;;;;;;;58.65;26.70;;;;;;;4.51;74.88;95463.34;4982780;28;20038;-73
2023/01/14 06:31:17;;;;;;;63.13;26.33;;;;;;;4.17;74.47;95430.81;4970759;28;20540;-74
2023/01/14 06:33:43;;;;;;;50.90;26.58;;;;;;;4.46;74.59;95470.31;4970071;28;20045;-74
2023/01/14 06:36:10;;;;;;;61.38;27.33;;;;;;;4.46;74.29;95462.44;4954207;28;20114;-74
2023/01/14 06:38:36;;;;;;;52.75;26.77;;;;;;;4.37;73.85;95455.94;4983269;28;20120;-74
2023/01/14 06:41:03;;;;;;;56.85;28.17;;;;;;;4.50;74.19;95474.13;4969622;28;20605;-73
2023/01/14 06:43:29;;;;;;;65.45;31.00;;;;;;;4.05;74.24;95405.56;4971533;28;20042;-74
2023/01/14 06:45:56;;;;;;;64.30;32.55;;;;;;;4.35;73.71;95423.88;4971061;28;20041;-73
2023/01/14 06:48:22;;;;;;;66.82;32.70;;;;;;;4.29;73.69;95412.44;4990114;28;20050;-74
2023/01/14 06:50:48;;;;;;;73.15;34.15;;;;;;;4.45;73.58;95435.38;4990118;28;20107;-74
2023/01/14 06:53:13;;;;;;;71.68;33.08;;;;;;;4.64;73.71;95478.09;4985058;28;20038;-74
2023/01/14 06:55:39;;;;;;;70.47;34.53;;;;;;;4.23;74.00;95429.09;4969910;28;20046;-75
2023/01/14 06:58:04;;;;;;;71.32;35.30;;;;;;;4.42;73.77;95463.94;4976384;28;20027;-74
2023/01/14 07:00:30;;;;;;;73.43;32.90;;;;;;;4.22;74.59;95459.00;4975848;28;20042;-74
2023/01/14 07:02:55;;;;;;;66.68;32.53;;;;;;;4.38;74.27;95452.28;4977531;28;20033;-74
2023/01/14 07:05:21;;;;;;;62.10;30.85;;;;;;;4.59;73.80;95485.84;4993557;28;20041;-74
2023/01/14 07:07:48;;;;;;;58.85;30.88;;;;;;;4.41;73.50;95446.59;4993553;28;20038;-74
2023/01/14 07:10:15;;;;;;;79.78;32.08;;;;;;;4.55;73.20;95456.63;4993732;28;20030;-74
2023/01/14 07:12:48;;;;;;;68.45;32.20;;;;;;;4.69;73.09;95485.28;4986224;28;20042;-75
2023/01/14 07:15:15;;;;;;;73.78;33.95;;;;;;;4.58;73.60;95489.50;4978313;28;20055;-74
2023/01/14 07:17:41;;;;;;;77.55;36.33;;;;;;;4.71;73.30;95496.38;4985944;28;20057;-74
2023/01/14 07:20:08;;;;;;;80.95;37.53;;;;;;;4.83;73.06;95494.53;4980790;28;20030;-74
2023/01/14 07:22:33;;;;;;;71.20;36.00;;;;;;;4.66;73.39;95495.22;4974457;28;20030;-73
2023/01/14 07:25:01;;;;;;;74.18;35.88;;;;;;;4.24;72.92;95417.59;4973893;28;20092;-74
2023/01/14 07:27:27;;;;;;;64.63;33.22;;;;;;;4.85;72.71;95503.78;4956626;28;20040;-74
2023/01/14 07:29:52;;;;;;;74.95;35.05;;;;;;;2.98;72.01;95208.97;4983711;28;20124;-75
2023/01/14 07:32:18;;;;;;;82.82;35.83;;;;;;;4.54;71.87;95446.34;4973793;28;20508;-74
2023/01/14 07:34:43;;;;;;;75.45;34.83;;;;;;;4.75;72.04;95466.78;4974945;28;20026;-74
2023/01/14 07:37:08;;;;;;;73.28;35.33;;;;;;;4.72;71.74;95463.81;4985128;28;20047;-74
2023/01/14 07:39:34;;;;;;;68.60;33.28;;;;;;;4.72;71.88;95455.94;4973569;28;20073;-74
2023/01/14 07:41:59;;;;;;;70.82;30.60;;;;;;;5.01;71.14;95479.44;4985088;28;20366;-74
2023/01/14 07:44:25;;;;;;;59.65;30.85;;;;;;;5.22;71.10;95509.56;4980049;28;20042;-75
2023/01/14 07:46:52;;;;;;;59.75;30.38;;;;;;;4.76;71.07;95415.03;4967818;28;20432;-74
2023/01/14 07:49:17;;;;;;;62.90;33.58;;;;;;;5.33;70.96;95510.59;4984034;28;20034;-74
2023/01/14 07:51:43;;;;;;;68.68;33.13;;;;;;;5.42;70.54;95514.44;4984275;28;20397;-74
2023/01/14 07:54:08;;;;;;;61.92;30.08;;;;;;;5.43;70.21;95513.41;4989985;28;20034;-74
2023/01/14 07:56:34;;;;;;;57.05;29.67;;;;;;;4.46;70.58;95413.34;4984815;28;20049;-74
2023/01/14 07:58:59;;;;;;;61.42;32.10;;;;;;;5.27;70.47;95512.31;4968231;28;20402;-74
2023/01/14 08:01:24;;;;;;;62.50;29.45;;;;;;;5.35;70.27;95495.38;4975044;28;20073;-74
2023/01/14 08:03:50;;;;;;;63.95;30.25;;;;;;;5.53;69.88;95513.63;4990913;28;20042;-74
2023/01/14 08:06:15;;;;;;;63.63;29.05;;;;;;;5.32;69.46;95470.34;4973108;28;20030;-74
2023/01/14 08:08:41;;;;;;;68.00;30.90;;;;;;;5.61;70.11;95515.88;4976500;28;20034;-74
2023/01/14 08:11:06;;;;;;;62.47;30.77;;;;;;;5.19;69.96;95470.59;4992202;28;20034;-74
2023/01/14 08:13:32;;;;;;;86.53;32.08;;;;;;;5.67;69.46;95520.22;5001159;28;20106;-74
2023/01/14 08:16:00;;;;;;;76.35;30.98;;;;;;;5.74;69.42;95512.19;5001362;28;20125;-74
2023/01/14 08:18:25;;;;;;;63.35;32.10;;;;;;;5.80;69.22;95524.38;5000957;28;20050;-74
2023/01/14 08:21:02;;;;;;;67.93;32.10;;;;;;;5.39;69.44;95459.69;4999065;28;20615;-74
2023/01/14 08:23:28;;;;;;;67.10;33.97;;;;;;;5.64;69.19;95496.22;4980420;28;20531;-74
2023/01/14 08:25:53;;;;;;;73.07;33.45;;;;;;;5.38;69.27;95450.19;4997839;28;20026;-75
2023/01/14 08:28:19;;;;;;;72.35;34.65;;;;;;;5.62;69.38;95495.63;5001872;28;20044;-74
2023/01/14 08:30:45;;;;;;;65.60;35.10;;;;;;;5.32;69.32;95440.63;4983627;28;20593;-74
2023/01/14 08:33:10;;;;;;;77.65;35.08;;;;;;;5.60;69.55;95477.44;4999377;28;20050;-74
2023/01/14 08:35:40;;;;;;;76.80;36.72;;;;;;;5.14;69.85;95432.88;4973338;28;20132;-74
2023/01/14 08:38:06;;;;;;;71.63;35.60;;;;;;;5.21;69.67;95434.34;4991727;28;20026;-74
2023/01/14 08:40:32;;;;;;;75.65;36.75;;;;;;;5.94;69.54;95531.03;4991959;28;20066;-74
2023/01/14 08:42:59;;;;;;;68.15;35.83;;;;;;;5.85;69.25;95508.72;4974493;28;20511;-74
2023/01/14 08:45:24;;;;;;;69.20;35.22;;;;;;;5.91;68.96;95538.56;4991926;28;20044;-74
2023/01/14 08:47:49;;;;;;;78.03;36.33;;;;;;;5.58;69.19;95500.56;4983382;28;20109;-74
2023/01/14 08:50:15;;;;;;;71.05;36.08;;;;;;;5.47;69.08;95488.25;4964210;28;20038;-74
2023/01/14 08:52:41;;;;;;;67.50;35.40;;;;;;;5.83;68.92;95545.78;4990472;28;20053;-74
2023/01/14 08:55:07;;;;;;;68.10;35.20;;;;;;;5.08;69.89;95458.28;4991683;28;20034;-74
2023/01/14 08:57:32;;;;;;;75.07;36.00;;;;;;;5.28;69.84;95457.88;4977392;28;20058;-75
2023/01/14 08:59:57;;;;;;;64.97;34.78;;;;;;;5.15;69.98;95464.22;4986724;28;20038;-75
2023/01/14 09:02:23;;;;;;;73.28;36.15;;;;;;;5.39;69.94;95481.53;4990985;28;20030;-74
2023/01/14 09:04:48;;;;;;;76.13;34.58;;;;;;;5.34;70.44;95484.03;4974039;28;20038;-73
2023/01/14 09:18:10;;;;;;;62.53;32.28;;;;;;;5.71;70.25;95507.41;4991657;28;20416;-72
2023/01/14 09:20:38;;;;;;;59.97;32.00;;;;;;;5.95;69.82;95508.13;4990489;28;20046;-74
2023/01/14 09:23:06;;;;;;;57.20;31.23;;;;;;;6.05;69.93;95509.09;4991261;28;20031;-73
2023/01/14 09:25:32;;;;;;;51.25;26.80;;;;;;;5.96;69.08;95510.50;4990996;28;20057;-74
2023/01/14 09:27:57;;;;;;;49.45;27.77;;;;;;;5.81;69.76;95486.50;4991196;28;20497;-74
2023/01/14 09:30:23;;;;;;;67.68;33.05;;;;;;;5.85;70.23;95487.66;4990925;28;20038;-73
2023/01/14 09:32:48;;;;;;;71.93;36.17;;;;;;;5.94;69.39;95506.53;4991149;28;20125;-73
2023/01/14 09:35:14;;;;;;;73.93;38.03;;;;;;;6.01;69.63;95496.66;4991560;28;20034;-73
2023/01/14 09:37:39;;;;;;;72.40;37.03;;;;;;;6.07;68.54;95480.69;4983581;28;20031;-73
2023/01/14 09:40:05;;;;;;;66.72;33.08;;;;;;;6.15;68.12;95506.66;4979339;28;20037;-73
2023/01/14 09:42:35;;;;;;;65.13;32.85;;;;;;;6.18;68.26;95495.63;4973224;28;20042;-73
2023/01/14 09:45:28;;;;;;;60.40;31.05;;;;;;;6.20;68.32;95498.81;4991065;28;20053;-73
2023/01/14 09:47:57;;;;;;;66.35;31.15;;;;;;;5.69;68.79;95444.47;4991230;28;20038;-74
2023/01/14 09:50:46;;;;;;;60.42;27.50;;;;;;;6.13;68.81;95469.22;4990297;28;20038;-74
2023/01/14 09:53:14;;;;;;;48.95;25.25;;;;;;;6.54;67.84;95485.69;4973164;28;20059;-74
2023/01/14 09:55:44;;;;;;;51.83;26.35;;;;;;;6.77;67.48;95489.97;4985594;28;20038;-74
2023/01/14 09:58:20;;;;;;;36.85;17.65;;;;;;;6.68;66.69;95468.50;4977535;28;20117;-74
2023/01/14 10:00:45;;;;;;;28.83;17.27;;;;;;;6.98;66.07;95489.22;4979814;28;20496;-74
2023/01/14 10:03:24;;;;;;;29.58;16.00;;;;;;;7.21;65.31;95493.47;4964403;28;20030;-74
2023/01/14 10:06:05;;;;;;;33.03;16.45;;;;;;;7.22;63.82;95487.97;4960090;28;20129;-73
2023/01/14 10:08:38;;;;;;;29.98;15.85;;;;;;;7.11;63.17;95451.13;4970444;28;20050;-73
2023/01/14 10:11:05;;;;;;;24.42;13.27;;;;;;;7.43;62.92;95482.91;4970622;28;20046;-73
2023/01/14 10:13:43;;;;;;;25.88;15.48;;;;;;;7.46;62.25;95477.97;4990385;28;20259;-73
2023/01/14 10:16:35;;;;;;;31.55;14.13;;;;;;;7.52;62.05;95476.97;4986744;28;20192;-73
2023/01/14 10:19:08;;;;;;;23.67;13.95;;;;;;;7.53;61.81;95475.94;4964435;28;20051;-74
2023/01/14 10:21:50;;;;;;;24.90;15.18;;;;;;;7.31;61.32;95433.72;4974860;28;20037;-73
2023/01/14 10:24:18;;;;;;;24.58;14.25;;;;;;;7.75;60.96;95471.44;4961468;28;20129;-73
2023/01/14 10:26:50;;;;;;;29.23;15.75;;;;;;;7.26;60.25;95328.13;4972596;28;20026;-73
2023/01/14 10:29:18;;;;;;;23.85;14.55;;;;;;;8.27;58.71;95417.22;4987034;28;20118;-73
2023/01/14 10:31:50;;;;;;;57.92;28.00;;;;;;;8.41;57.78;95357.63;4982256;28;20031;-73
2023/01/14 10:34:25;;;;;;;53.25;29.52;;;;;;;8.83;57.36;95426.34;4963458;28;20042;-73
2023/01/14 10:36:50;;;;;;;54.22;28.75;;;;;;;8.71;57.26;95341.13;4977273;28;20041;-73
2023/01/14 10:39:16;;;;;;;52.35;28.13;;;;;;;8.94;56.70;95388.31;4967385;28;20473;-74
2023/01/14 10:41:50;;;;;;;58.90;30.30;;;;;;;8.87;56.50;95354.16;4969036;28;20030;-74
2023/01/14 10:44:24;;;;;;;61.33;29.20;;;;;;;8.04;57.59;95328.53;4980682;28;21611;-75
2023/01/14 10:46:59;;;;;;;57.60;30.45;;;;;;;9.01;57.95;95451.56;4977430;28;20433;-74
2023/01/14 10:49:43;;;;;;;52.20;28.98;;;;;;;9.00;57.25;95463.22;4982105;28;20096;-75
2023/01/14 10:52:28;;;;;;;49.47;28.17;;;;;;;8.69;57.42;95433.16;4985254;28;20515;-74
2023/01/14 10:55:01;;;;;;;51.40;29.35;;;;;;;8.77;58.03;95465.16;4978144;28;20403;-74
2023/01/14 10:57:29;;;;;;;52.45;29.20;;;;;;;8.39;57.57;95381.66;4959837;28;20033;-75
2023/01/14 10:59:56;;;;;;;47.95;29.58;;;;;;;8.36;59.28;95448.25;4981961;28;20100;-74
2023/01/14 11:02:37;;;;;;;56.42;30.10;;;;;;;8.19;59.22;95425.59;4989649;28;20033;-74
2023/01/14 11:05:24;;;;;;;55.35;29.23;;;;;;;7.87;59.08;95370.91;4987416;28;20026;-74
2023/01/14 11:07:51;;;;;;;55.78;29.45;;;;;;;8.04;59.96;95431.56;4956286;28;20039;-74
2023/01/14 11:10:20;;;;;;;42.30;23.98;;;;;;;8.25;59.41;95433.31;4983233;28;20041;-74
2023/01/14 11:12:45;;;;;;;50.35;26.02;;;;;;;7.65;60.15;95397.41;4960542;28;20409;-74
2023/01/14 11:15:39;;;;;;;57.95;28.73;;;;;;;8.00;60.40;95427.81;4964771;28;20117;-75
2023/01/14 11:18:22;;;;;;;55.35;27.98;;;;;;;7.65;60.87;95433.56;4982116;28;20061;-74
2023/01/14 11:21:02;;;;;;;51.85;27.08;;;;;;;7.52;61.05;95433.94;4961077;28;20030;-74
2023/01/14 11:23:30;;;;;;;53.03;28.38;;;;;;;7.52;61.22;95436.59;4959820;28;20411;-74
2023/01/14 11:26:08;;;;;;;60.15;29.70;;;;;;;7.26;62.07;95438.13;4966941;28;20034;-74
2023/01/14 11:28:48;;;;;;;58.35;29.98;;;;;;;7.34;62.13;95433.22;4964630;28;20497;-75
2023/01/14 11:31:15;;;;;;;61.97;32.15;;;;;;;7.18;61.76;95414.81;4955874;28;20027;-74
2023/01/14 11:33:51;;;;;;;58.25;31.98;;;;;;;7.35;62.60;95432.19;4974797;28;20105;-74
2023/01/14 11:36:29;;;;;;;58.13;31.15;;;;;;;7.59;61.65;95434.56;4979792;28;20054;-75
2023/01/14 11:38:57;;;;;;;61.22;32.40;;;;;;;7.59;60.79;95408.94;4978094;28;20043;-74
2023/01/14 11:41:39;;;;;;;64.93;32.60;;;;;;;7.21;60.86;95362.38;4981219;28;20031;-73
2023/01/14 11:44:14;;;;;;;63.13;33.53;;;;;;;7.81;61.30;95442.41;4985643;28;20392;-75
2023/01/14 11:46:43;;;;;;;58.20;32.17;;;;;;;7.63;61.50;95439.06;4978879;28;20034;-73
2023/01/14 11:49:22;;;;;;;58.30;30.48;;;;;;;5.93;61.79;95223.28;4970495;28;20026;-73
2023/01/14 11:52:14;;;;;;;56.38;27.80;;;;;;;7.21;62.56;95417.78;4969403;28;20076;-72
2023/01/14 11:54:41;;;;;;;46.25;27.35;;;;;;;7.11;62.40;95408.94;4991592;28;20037;-75
2023/01/14 11:57:17;;;;;;;46.70;26.40;;;;;;;7.24;62.60;95445.50;4992249;28;20424;-75
2023/01/14 11:59:44;;;;;;;51.38;28.08;;;;;;;7.26;62.98;95443.41;4980140;28;20500;-74
2023/01/14 12:02:29;;;;;;;45.25;24.98;;;;;;;6.54;63.59;95401.34;4987988;28;20362;-75
2023/01/14 12:05:25;;;;;;;26.42;15.18;;;;;;;6.41;63.75;95420.13;4974872;28;20031;-74